Time;durP1;ratioP1;P1;durP2;ratioP2;P2;SDS_P1;SDS_P2;PMS_P1;PMS_P2;Temp;Humidity;BMP_temperature;BMP_pressure;BME280_temperature;BME280_humidity;BME280_pressure;Samples;Min_cycle;Max_cycle;Signal;HPM_P1;HPM_P2
2022/09/07 00:00:51;;;;;;;8.85;3.58;;;17.60;99.90;;;;;;4983961;28;20052;-70
2022/09/07 00:03:17;;;;;;;13.93;3.85;;;17.60;99.90;;;;;;4981067;28;20039;-72
2022/09/07 00:05:45;;;;;;;8.30;3.85;;;17.60;99.90;;;;;;4977162;28;20046;-71
2022/09/07 00:08:12;;;;;;;13.25;4.07;;;17.60;99.90;;;;;;4982838;28;20525;-70
2022/09/07 00:10:38;;;;;;;11.98;3.55;;;17.60;99.90;;;;;;4986474;28;20112;-71
2022/09/07 00:13:05;;;;;;;14.23;3.85;;;17.50;99.90;;;;;;4985501;28;20517;-70
2022/09/07 00:15:31;;;;;;;5.90;3.40;;;17.60;99.90;;;;;;4986026;28;20057;-71
2022/09/07 00:17:56;;;;;;;9.80;3.90;;;17.50;99.90;;;;;;5001607;28;20038;-70
2022/09/07 00:20:22;;;;;;;7.93;3.78;;;17.50;99.90;;;;;;4985968;28;20069;-70
2022/09/07 00:22:48;;;;;;;7.70;4.20;;;17.50;99.90;;;;;;4985424;28;20480;-70
2022/09/07 00:25:13;;;;;;;10.88;4.18;;;17.50;99.90;;;;;;4969278;28;20104;-70
2022/09/07 00:27:40;;;;;;;7.22;3.60;;;17.50;99.90;;;;;;4969434;28;20514;-70
2022/09/07 00:30:06;;;;;;;10.88;3.97;;;17.50;99.90;;;;;;4969195;28;20106;-70
2022/09/07 00:32:32;;;;;;;10.40;4.03;;;17.40;99.90;;;;;;5001976;28;20414;-70
2022/09/07 00:34:57;;;;;;;7.43;3.63;;;17.40;99.90;;;;;;4968660;28;20050;-70
2022/09/07 00:37:23;;;;;;;4.45;3.67;;;17.40;99.90;;;;;;4984644;28;20074;-70
2022/09/07 00:39:49;;;;;;;13.45;4.10;;;17.40;99.90;;;;;;4980858;28;20046;-70
2022/09/07 00:42:20;;;;;;;12.98;3.92;;;17.40;99.90;;;;;;4985194;28;20576;-71
2022/09/07 00:45:06;;;;;;;7.20;3.90;;;17.40;99.90;;;;;;4986679;28;20069;-71
2022/09/07 00:47:44;;;;;;;13.38;3.80;;;17.40;99.90;;;;;;5002037;28;20049;-70
2022/09/07 00:50:15;;;;;;;7.28;3.78;;;17.40;99.90;;;;;;4968762;28;20082;-71
2022/09/07 00:52:44;;;;;;;4.85;3.65;;;17.40;99.90;;;;;;4985255;28;20034;-70
2022/09/07 00:55:13;;;;;;;8.93;4.20;;;17.50;99.90;;;;;;4985536;28;20054;-70
2022/09/07 00:57:44;;;;;;;6.53;3.97;;;17.50;99.90;;;;;;4985503;28;20082;-70
2022/09/07 01:00:11;;;;;;;5.90;3.72;;;17.50;99.90;;;;;;4975775;28;20090;-70
2022/09/07 01:02:37;;;;;;;7.88;4.40;;;17.50;99.90;;;;;;4985644;28;20050;-70
2022/09/07 01:05:13;;;;;;;10.18;4.57;;;17.50;99.90;;;;;;5001540;28;20903;-70
2022/09/07 01:07:39;;;;;;;8.00;4.00;;;17.50;99.90;;;;;;4985976;28;20585;-70
2022/09/07 01:10:06;;;;;;;7.30;4.28;;;17.40;99.90;;;;;;4984395;28;20065;-70
2022/09/07 01:12:32;;;;;;;8.38;3.67;;;17.40;99.90;;;;;;4984587;28;20050;-71
2022/09/07 01:14:58;;;;;;;5.82;4.35;;;17.30;99.90;;;;;;4985303;28;20057;-70
2022/09/07 01:18:09;;;;;;;8.38;4.80;;;17.30;99.90;;;;;;4984416;28;20516;-71
2022/09/07 01:20:58;;;;;;;7.93;4.63;;;17.30;99.90;;;;;;4966175;28;20042;-71
2022/09/07 01:23:43;;;;;;;12.32;4.88;;;17.30;99.90;;;;;;4986054;28;20054;-70
2022/09/07 01:26:30;;;;;;;12.98;4.53;;;17.30;99.90;;;;;;4969201;28;20042;-71
2022/09/07 01:29:14;;;;;;;6.07;4.47;;;17.30;99.90;;;;;;4984272;28;20089;-71
2022/09/07 01:32:25;;;;;;;13.75;4.18;;;17.20;99.90;;;;;;4984342;28;20100;-71
2022/09/07 01:34:54;;;;;;;15.45;4.55;;;17.10;99.90;;;;;;4984875;28;20038;-72
2022/09/07 01:37:40;;;;;;;8.68;4.80;;;17.10;99.90;;;;;;4984657;28;20046;-73
2022/09/07 01:40:16;;;;;;;7.68;4.82;;;17.00;99.90;;;;;;4984143;28;20088;-72
2022/09/07 01:43:11;;;;;;;8.80;4.50;;;17.00;99.90;;;;;;4969118;28;20054;-72
2022/09/07 01:45:40;;;;;;;6.32;4.53;;;17.00;99.90;;;;;;4982354;28;20058;-73
2022/09/07 01:48:11;;;;;;;5.68;4.40;;;17.00;99.90;;;;;;4984294;28;20055;-73
2022/09/07 01:50:50;;;;;;;12.05;5.03;;;17.10;99.90;;;;;;4985167;28;20046;-75
2022/09/07 01:53:41;;;;;;;12.60;4.63;;;17.10;99.90;;;;;;4984679;28;20050;-78
2022/09/07 01:56:14;;;;;;;10.88;4.93;;;17.10;99.90;;;;;;4980644;28;20105;-74
2022/09/07 01:59:01;;;;;;;14.00;6.18;;;17.20;99.90;;;;;;4983668;28;20063;-73
2022/09/07 02:01:39;;;;;;;19.10;5.93;;;17.20;99.90;;;;;;4965418;28;20420;-72
2022/09/07 02:04:18;;;;;;;10.88;5.15;;;17.20;99.90;;;;;;4992955;28;20565;-71
2022/09/07 02:06:56;;;;;;;9.77;5.07;;;17.20;99.90;;;;;;5004262;28;20312;-71
2022/09/07 02:09:56;;;;;;;9.50;5.47;;;17.20;99.90;;;;;;4988109;28;20042;-72
2022/09/07 02:12:31;;;;;;;8.77;5.72;;;17.20;99.90;;;;;;4951407;28;20141;-72
2022/09/07 02:15:02;;;;;;;9.60;5.60;;;17.00;99.90;;;;;;4972120;28;20049;-73
2022/09/07 02:17:33;;;;;;;7.57;5.30;;;16.80;99.90;;;;;;4971939;28;20034;-74
2022/09/07 02:20:09;;;;;;;7.47;5.70;;;16.80;99.90;;;;;;4987647;28;20070;-73
2022/09/07 02:22:40;;;;;;;7.72;6.03;;;16.70;99.90;;;;;;4987569;28;20042;-73
2022/09/07 02:25:07;;;;;;;10.27;6.07;;;16.60;99.90;;;;;;5005110;28;20043;-72
2022/09/07 02:27:39;;;;;;;7.88;6.47;;;16.50;99.90;;;;;;5003332;28;20038;-75
2022/09/07 02:30:06;;;;;;;12.90;7.22;;;16.40;99.90;;;;;;4987451;28;20038;-73
2022/09/07 02:32:32;;;;;;;14.45;6.88;;;16.40;99.90;;;;;;4970594;28;20125;-74
2022/09/07 02:34:57;;;;;;;12.48;6.85;;;16.30;99.90;;;;;;4988489;28;20144;-75
2022/09/07 02:37:25;;;;;;;20.25;6.93;;;16.30;99.90;;;;;;4938969;28;20492;-74
2022/09/07 02:39:51;;;;;;;14.80;7.07;;;16.30;99.90;;;;;;4987311;28;20341;-74
2022/09/07 02:42:17;;;;;;;11.02;6.72;;;16.30;99.90;;;;;;4972007;28;20041;-72
2022/09/07 02:44:45;;;;;;;10.98;7.78;;;16.30;99.90;;;;;;5003273;28;20085;-73
2022/09/07 02:48:05;;;;;;;12.77;8.15;;;16.30;99.90;;;;;;4988124;28;20047;-73
2022/09/07 02:50:56;;;;;;;14.45;8.27;;;16.30;99.90;;;;;;4895577;29;20133;-73
2022/09/07 02:53:24;;;;;;;11.63;7.65;;;16.30;99.90;;;;;;5003181;28;20140;-73
2022/09/07 02:56:06;;;;;;;11.82;8.38;;;16.30;99.90;;;;;;4988200;28;20184;-73
2022/09/07 02:58:57;;;;;;;16.00;7.97;;;16.30;99.90;;;;;;4986554;28;20048;-73
2022/09/07 03:01:41;;;;;;;8.80;7.45;;;16.30;99.90;;;;;;4970390;28;20489;-73
2022/09/07 03:04:30;;;;;;;14.05;7.22;;;16.30;99.90;;;;;;4987353;28;20336;-73
2022/09/07 03:07:14;;;;;;;8.53;5.67;;;16.30;99.90;;;;;;4987068;28;20093;-73
2022/09/07 03:09:44;;;;;;;11.45;6.55;;;16.40;99.90;;;;;;4971022;28;20045;-73
2022/09/07 03:12:11;;;;;;;10.43;6.80;;;16.50;99.90;;;;;;4986775;28;20107;-73
2022/09/07 03:14:39;;;;;;;14.02;7.00;;;16.50;99.90;;;;;;4986834;28;20113;-73
2022/09/07 03:17:06;;;;;;;12.95;7.03;;;16.50;99.90;;;;;;4986012;28;20397;-73
2022/09/07 03:19:31;;;;;;;12.55;6.93;;;16.50;99.90;;;;;;4988686;28;20558;-73
2022/09/07 03:21:57;;;;;;;11.65;6.95;;;16.50;99.90;;;;;;4958773;28;20057;-73
2022/09/07 03:24:23;;;;;;;14.10;7.40;;;16.50;99.90;;;;;;4973303;28;20579;-73
2022/09/07 03:26:50;;;;;;;10.13;6.90;;;16.50;99.90;;;;;;4989698;28;20042;-73
2022/09/07 03:29:17;;;;;;;14.98;7.43;;;16.60;99.90;;;;;;5000656;28;20046;-73
2022/09/07 03:31:43;;;;;;;9.43;7.35;;;16.60;99.90;;;;;;5006278;28;20107;-73
2022/09/07 03:34:09;;;;;;;8.00;6.60;;;16.60;99.90;;;;;;5006695;28;20058;-73
2022/09/07 03:36:35;;;;;;;16.88;6.97;;;16.60;99.90;;;;;;4972558;28;20484;-73
2022/09/07 03:39:01;;;;;;;16.13;6.80;;;16.60;99.90;;;;;;5006757;28;20037;-74
2022/09/07 03:41:27;;;;;;;9.95;6.60;;;16.60;99.90;;;;;;4972698;28;20045;-73
2022/09/07 03:43:53;;;;;;;9.95;6.97;;;16.60;99.90;;;;;;4990491;28;20072;-73
2022/09/07 03:46:19;;;;;;;11.07;8.07;;;16.50;99.90;;;;;;4989291;28;21005;-72
2022/09/07 03:48:47;;;;;;;17.73;7.35;;;16.50;99.90;;;;;;4989748;28;20438;-73
2022/09/07 03:51:14;;;;;;;13.50;7.00;;;16.50;99.90;;;;;;4989727;28;20053;-73
2022/09/07 03:53:43;;;;;;;8.93;7.10;;;16.50;99.90;;;;;;4988709;28;20092;-73
2022/09/07 03:56:12;;;;;;;7.57;6.78;;;16.50;99.90;;;;;;5006247;28;20045;-72
2022/09/07 03:58:38;;;;;;;11.88;7.32;;;16.50;99.90;;;;;;5004307;28;20038;-73
2022/09/07 04:01:10;;;;;;;10.13;7.15;;;16.50;99.90;;;;;;4974198;28;20069;-73
2022/09/07 04:03:37;;;;;;;13.45;7.55;;;16.50;99.90;;;;;;4988793;28;20049;-73
2022/09/07 04:06:03;;;;;;;11.20;7.43;;;16.40;99.90;;;;;;5006122;28;20054;-73
2022/09/07 04:08:31;;;;;;;12.48;7.00;;;16.50;99.90;;;;;;4978287;28;20041;-73
2022/09/07 04:10:59;;;;;;;13.85;8.10;;;16.40;99.90;;;;;;5005621;28;20112;-73
2022/09/07 04:13:27;;;;;;;13.38;7.72;;;16.40;99.90;;;;;;5005900;28;20307;-73
2022/09/07 04:15:53;;;;;;;9.20;7.53;;;16.50;99.90;;;;;;5004211;28;20042;-73
2022/09/07 04:18:20;;;;;;;9.85;7.78;;;16.40;99.90;;;;;;5005701;28;20038;-72
2022/09/07 04:20:46;;;;;;;12.90;7.20;;;16.50;99.90;;;;;;4990501;28;20058;-73
2022/09/07 04:23:12;;;;;;;16.02;8.48;;;16.50;99.90;;;;;;4982498;28;20405;-73
2022/09/07 04:25:45;;;;;;;14.70;8.40;;;16.50;99.90;;;;;;4983567;28;20045;-73
2022/09/07 04:28:10;;;;;;;12.32;7.90;;;16.50;99.90;;;;;;4986174;28;20053;-72
2022/09/07 04:30:36;;;;;;;16.75;9.50;;;16.50;99.90;;;;;;4977962;28;20050;-74
2022/09/07 04:33:02;;;;;;;17.33;8.68;;;16.50;99.90;;;;;;4955682;28;20038;-73
2022/09/07 04:35:28;;;;;;;22.25;9.05;;;16.50;99.90;;;;;;4989399;28;20492;-73
2022/09/07 04:37:54;;;;;;;17.63;9.48;;;16.40;99.90;;;;;;4987828;28;20050;-73
2022/09/07 04:40:20;;;;;;;19.13;8.80;;;16.40;99.90;;;;;;5004896;28;20061;-73
2022/09/07 04:42:46;;;;;;;19.30;9.07;;;16.30;99.90;;;;;;4988148;28;20038;-72
2022/09/07 04:45:11;;;;;;;17.08;10.02;;;16.30;99.90;;;;;;4989095;28;20080;-72
2022/09/07 04:47:37;;;;;;;13.18;9.30;;;16.30;99.90;;;;;;4988436;28;20073;-72
2022/09/07 04:50:03;;;;;;;12.18;9.20;;;16.20;99.90;;;;;;4984918;28;20551;-72
2022/09/07 04:52:29;;;;;;;16.52;9.63;;;16.20;99.90;;;;;;4988714;28;20053;-72
2022/09/07 04:54:54;;;;;;;15.43;9.60;;;16.20;99.90;;;;;;4987312;28;20053;-71
2022/09/07 04:57:23;;;;;;;11.68;8.85;;;16.20;99.90;;;;;;4989059;28;20038;-72
2022/09/07 04:59:49;;;;;;;12.90;9.27;;;16.20;99.90;;;;;;4983815;28;20053;-72
2022/09/07 05:02:14;;;;;;;10.35;8.85;;;16.20;99.90;;;;;;4983996;28;20049;-72
2022/09/07 05:04:40;;;;;;;15.80;8.98;;;16.20;99.90;;;;;;4988426;28;20119;-72
2022/09/07 05:07:06;;;;;;;10.05;8.80;;;16.20;99.90;;;;;;4988529;28;20125;-71
2022/09/07 05:09:33;;;;;;;12.75;9.52;;;16.20;99.90;;;;;;4954077;28;20397;-71
2022/09/07 05:11:59;;;;;;;12.45;8.77;;;16.20;99.90;;;;;;4961208;28;20134;-72
2022/09/07 05:14:24;;;;;;;18.38;9.35;;;16.20;99.90;;;;;;4986881;28;20124;-72
2022/09/07 05:16:50;;;;;;;14.27;9.93;;;16.20;99.90;;;;;;4987787;28;20085;-72
2022/09/07 05:19:16;;;;;;;14.20;9.02;;;16.20;99.90;;;;;;4986863;28;20534;-72
2022/09/07 05:21:41;;;;;;;18.55;9.38;;;16.20;99.90;;;;;;4963313;28;20554;-72
2022/09/07 05:24:08;;;;;;;14.05;10.15;;;16.20;99.90;;;;;;4999150;28;20050;-72
2022/09/07 05:26:35;;;;;;;16.98;9.45;;;16.20;99.90;;;;;;5005803;28;20451;-71
2022/09/07 05:29:04;;;;;;;11.82;9.32;;;16.20;99.90;;;;;;4992658;28;20081;-71
2022/09/07 05:31:31;;;;;;;13.23;9.10;;;16.20;99.90;;;;;;4977076;28;20041;-71
2022/09/07 05:33:57;;;;;;;14.07;9.07;;;16.20;99.90;;;;;;5007821;28;20049;-71
2022/09/07 05:36:25;;;;;;;11.20;9.15;;;16.20;99.90;;;;;;5006829;28;20073;-71
2022/09/07 05:38:55;;;;;;;14.18;9.00;;;16.30;99.90;;;;;;4991158;28;20492;-71
2022/09/07 05:41:22;;;;;;;;;;;16.30;99.90;;;;;;5005067;28;20123;-72
2022/09/07 05:43:48;;;;;;;12.77;8.10;;;16.30;99.90;;;;;;4992048;28;19976;-71
2022/09/07 05:46:14;;;;;;;10.48;8.32;;;16.30;99.90;;;;;;4975572;28;20038;-71
2022/09/07 05:48:40;;;;;;;8.40;7.53;;;16.40;99.90;;;;;;4992117;28;20469;-71
2022/09/07 05:51:07;;;;;;;10.00;8.57;;;16.40;99.90;;;;;;4989866;28;20092;-71
2022/09/07 05:53:37;;;;;;;10.35;8.85;;;16.50;99.90;;;;;;5008437;28;20053;-71
2022/09/07 05:56:04;;;;;;;11.32;8.80;;;16.50;99.90;;;;;;4964533;28;20054;-71
2022/09/07 05:58:30;;;;;;;12.98;8.77;;;16.50;99.90;;;;;;4972899;28;20042;-71
2022/09/07 06:01:07;;;;;;;17.08;9.82;;;16.50;99.90;;;;;;5005872;28;20089;-71
2022/09/07 06:03:35;;;;;;;13.48;9.43;;;16.50;99.90;;;;;;4988173;28;20496;-70
2022/09/07 06:06:09;;;;;;;15.25;9.68;;;16.60;99.90;;;;;;4987627;28;20039;-71
2022/09/07 06:08:36;;;;;;;10.27;9.25;;;16.60;99.90;;;;;;5004165;28;20065;-70
2022/09/07 06:11:11;;;;;;;11.43;8.98;;;16.60;99.90;;;;;;5007217;28;20440;-71
2022/09/07 06:13:37;;;;;;;14.55;9.75;;;16.60;99.90;;;;;;4981470;28;20054;-71
2022/09/07 06:16:04;;;;;;;12.60;10.07;;;16.60;99.90;;;;;;4972868;28;20076;-71
2022/09/07 06:18:35;;;;;;;16.52;10.95;;;16.60;99.90;;;;;;4991215;28;20034;-70
2022/09/07 06:21:05;;;;;;;13.82;10.45;;;16.70;99.90;;;;;;4989482;28;20066;-71
2022/09/07 06:23:32;;;;;;;12.77;9.80;;;16.70;99.90;;;;;;4991958;28;20046;-71
2022/09/07 06:25:57;;;;;;;10.30;9.05;;;16.80;99.90;;;;;;4974176;28;20121;-71
2022/09/07 06:28:28;;;;;;;15.93;9.80;;;16.80;99.90;;;;;;4959543;28;20050;-71
2022/09/07 06:31:06;;;;;;;13.30;9.10;;;16.80;99.90;;;;;;4967340;28;20068;-71
2022/09/07 06:33:33;;;;;;;13.27;8.85;;;16.90;99.90;;;;;;4988614;28;20129;-70
2022/09/07 06:36:01;;;;;;;10.23;8.98;;;16.90;99.90;;;;;;5007643;28;20045;-70
2022/09/07 06:38:36;;;;;;;10.60;8.20;;;16.90;99.90;;;;;;4990022;28;20072;-70
2022/09/07 06:41:07;;;;;;;13.52;8.75;;;16.90;99.90;;;;;;4990605;28;20103;-71
2022/09/07 06:43:33;;;;;;;9.20;7.70;;;16.90;99.90;;;;;;4999356;28;20491;-71
2022/09/07 06:45:59;;;;;;;11.80;8.98;;;16.90;99.90;;;;;;5002277;28;20057;-70
2022/09/07 06:48:26;;;;;;;10.75;8.35;;;16.90;99.90;;;;;;4991006;28;20404;-71
2022/09/07 06:51:02;;;;;;;9.27;8.32;;;17.00;99.90;;;;;;4990372;28;20338;-70
2022/09/07 06:53:33;;;;;;;11.15;8.05;;;17.10;99.90;;;;;;4989193;28;20057;-70
2022/09/07 06:56:00;;;;;;;10.32;9.30;;;17.20;99.90;;;;;;4987722;28;20046;-71
2022/09/07 06:58:27;;;;;;;10.65;8.15;;;17.20;99.90;;;;;;5010198;28;20133;-70
2022/09/07 07:00:53;;;;;;;11.52;7.57;;;17.30;99.90;;;;;;4986805;28;20053;-69
2022/09/07 07:03:20;;;;;;;10.85;7.78;;;17.30;99.90;;;;;;4986972;28;20386;-70
2022/09/07 07:05:53;;;;;;;9.02;8.13;;;17.40;99.90;;;;;;4987398;28;20037;-70
2022/09/07 07:08:20;;;;;;;15.00;7.90;;;17.40;99.90;;;;;;4987761;28;20125;-70
2022/09/07 07:10:46;;;;;;;10.48;8.25;;;17.40;99.90;;;;;;4989747;28;20050;-70
2022/09/07 07:13:12;;;;;;;10.30;7.70;;;17.40;99.90;;;;;;4989481;28;20049;-70
2022/09/07 07:15:37;;;;;;;10.30;7.72;;;17.50;99.90;;;;;;4988428;28;20053;-70
2022/09/07 07:18:03;;;;;;;9.90;8.02;;;17.50;99.90;;;;;;4990131;28;20058;-69
2022/09/07 07:20:29;;;;;;;12.90;8.50;;;17.50;99.90;;;;;;4989987;28;20489;-70
2022/09/07 07:22:55;;;;;;;8.77;7.80;;;17.60;99.90;;;;;;4989303;28;20404;-69
2022/09/07 07:25:21;;;;;;;13.48;7.05;;;17.70;99.90;;;;;;4990479;28;20061;-70
2022/09/07 07:27:47;;;;;;;8.75;7.45;;;17.70;99.90;;;;;;4978235;28;20416;-70
2022/09/07 07:30:17;;;;;;;9.18;7.28;;;17.70;99.90;;;;;;4988844;28;20050;-71
2022/09/07 07:32:43;;;;;;;10.90;6.97;;;17.60;99.90;;;;;;4988994;28;20073;-69
2022/09/07 07:35:19;;;;;;;9.82;7.38;;;17.50;99.90;;;;;;5005605;28;20046;-70
2022/09/07 07:37:45;;;;;;;9.38;7.57;;;17.40;99.90;;;;;;4985044;28;20049;-70
2022/09/07 07:40:13;;;;;;;7.97;7.10;;;17.30;99.90;;;;;;4989058;28;20060;-69
2022/09/07 07:42:40;;;;;;;8.10;7.28;;;17.30;99.90;;;;;;4990090;28;20046;-69
2022/09/07 07:45:07;;;;;;;9.43;6.97;;;17.30;99.90;;;;;;4989482;28;20065;-70
2022/09/07 07:47:34;;;;;;;9.05;7.28;;;17.30;99.90;;;;;;4989237;28;20037;-70
2022/09/07 07:50:01;;;;;;;10.60;6.93;;;17.20;99.90;;;;;;4989156;28;20103;-70
2022/09/07 07:52:38;;;;;;;8.65;7.32;;;17.20;99.90;;;;;;4987987;28;20045;-70
2022/09/07 07:55:05;;;;;;;10.05;7.85;;;17.20;99.90;;;;;;4989476;28;20643;-70
2022/09/07 07:57:31;;;;;;;8.30;7.50;;;17.30;99.90;;;;;;4972456;28;20130;-70
2022/09/07 07:59:57;;;;;;;9.73;7.60;;;17.30;99.90;;;;;;4989213;28;20236;-70
2022/09/07 08:02:23;;;;;;;8.88;7.82;;;17.30;99.90;;;;;;4989383;28;20179;-69
2022/09/07 08:04:49;;;;;;;13.77;8.23;;;17.30;99.90;;;;;;4988839;28;20041;-70
2022/09/07 08:07:15;;;;;;;10.20;8.55;;;17.30;99.90;;;;;;4989740;28;20237;-70
2022/09/07 08:09:43;;;;;;;9.27;8.02;;;17.40;99.90;;;;;;4984132;28;20436;-70
2022/09/07 08:12:17;;;;;;;9.45;8.27;;;17.40;99.90;;;;;;4987649;28;20128;-70
2022/09/07 08:14:45;;;;;;;11.68;8.02;;;17.50;99.90;;;;;;5003743;28;20152;-70
2022/09/07 08:17:14;;;;;;;10.45;7.88;;;17.50;99.90;;;;;;4976894;28;20046;-70
2022/09/07 08:19:40;;;;;;;15.68;8.32;;;17.60;99.90;;;;;;4983890;28;20097;-69
2022/09/07 08:22:07;;;;;;;10.88;8.80;;;17.60;99.90;;;;;;4953790;28;20042;-70
2022/09/07 08:24:33;;;;;;;15.63;8.73;;;17.60;99.90;;;;;;4987316;28;20037;-70
2022/09/07 08:26:59;;;;;;;12.18;8.43;;;17.70;99.90;;;;;;4988301;28;20041;-69
2022/09/07 08:29:25;;;;;;;13.05;8.48;;;17.70;99.90;;;;;;4986600;28;20048;-70
2022/09/07 08:31:51;;;;;;;16.20;8.52;;;17.70;99.90;;;;;;4987588;28;20366;-70
2022/09/07 08:34:16;;;;;;;10.48;8.43;;;17.70;99.90;;;;;;4989134;28;20045;-70
2022/09/07 08:36:42;;;;;;;9.52;8.48;;;17.80;99.90;;;;;;4988788;28;20053;-70
2022/09/07 08:39:09;;;;;;;14.13;8.43;;;17.80;99.90;;;;;;5004720;28;20045;-70
2022/09/07 08:42:12;;;;;;;11.80;8.75;;;17.90;99.90;;;;;;4988389;28;20058;-70
2022/09/07 08:44:42;;;;;;;12.27;9.23;;;17.90;99.90;;;;;;4988882;28;20081;-70
2022/09/07 08:47:20;;;;;;;10.32;8.30;;;18.00;99.90;;;;;;5005984;28;20144;-69
2022/09/07 08:50:03;;;;;;;8.85;7.97;;;18.10;99.90;;;;;;4988398;28;20042;-70
2022/09/07 08:52:55;;;;;;;13.40;8.65;;;18.20;99.90;;;;;;4982386;28;20056;-70
2022/09/07 08:55:36;;;;;;;18.70;9.52;;;18.30;99.90;;;;;;4997244;28;20460;-69
2022/09/07 08:58:33;;;;;;;13.88;8.75;;;18.40;99.90;;;;;;4988274;28;20054;-70
2022/09/07 09:00:59;;;;;;;17.35;8.30;;;18.50;99.90;;;;;;4982990;28;20046;-70
2022/09/07 09:03:29;;;;;;;9.20;8.07;;;18.50;99.90;;;;;;4986780;28;20048;-70
2022/09/07 09:06:03;;;;;;;9.10;8.15;;;18.50;99.90;;;;;;5006272;28;20038;-69
2022/09/07 09:08:48;;;;;;;10.45;8.35;;;18.60;99.90;;;;;;4988281;28;20038;-70
2022/09/07 09:11:17;;;;;;;13.48;9.73;;;18.80;99.90;;;;;;4988166;28;20099;-69
2022/09/07 09:14:00;;;;;;;20.00;10.93;;;18.90;99.90;;;;;;4997244;28;20046;-69
2022/09/07 09:16:42;;;;;;;13.10;10.15;;;19.00;99.90;;;;;;4989072;28;20049;-70
2022/09/07 09:19:33;;;;;;;24.35;11.27;;;19.00;99.90;;;;;;4987734;28;20061;-69
2022/09/07 09:22:17;;;;;;;21.42;10.57;;;19.00;99.90;;;;;;4987700;28;20184;-69
2022/09/07 09:24:59;;;;;;;14.95;10.73;;;19.00;99.90;;;;;;5006513;28;20048;-69
2022/09/07 09:27:27;;;;;;;16.17;10.88;;;19.00;99.90;;;;;;4988207;28;20165;-69
2022/09/07 09:29:53;;;;;;;10.40;8.73;;;19.10;99.90;;;;;;4988507;28;20192;-70
2022/09/07 09:32:38;;;;;;;9.98;8.60;;;19.10;99.90;;;;;;4986612;28;20124;-69
2022/09/07 09:35:12;;;;;;;10.85;8.38;;;19.20;99.90;;;;;;5004082;28;20085;-69
2022/09/07 09:37:39;;;;;;;10.73;8.75;;;19.20;99.90;;;;;;5005225;28;20073;-69
2022/09/07 09:40:08;;;;;;;10.23;8.07;;;19.30;99.90;;;;;;4971082;28;20093;-69
2022/09/07 09:42:35;;;;;;;15.35;8.70;;;19.40;99.90;;;;;;4978551;28;20089;-69
2022/09/07 09:45:20;;;;;;;12.77;8.10;;;19.40;99.90;;;;;;5000007;28;20611;-70
2022/09/07 09:47:49;;;;;;;10.18;8.07;;;19.40;99.90;;;;;;4987586;28;20531;-69
2022/09/07 09:50:30;;;;;;;10.80;8.35;;;19.50;99.90;;;;;;5005509;28;20038;-69
2022/09/07 09:52:57;;;;;;;17.80;8.38;;;19.60;99.90;;;;;;4986242;28;20042;-69
2022/09/07 09:55:30;;;;;;;9.32;8.10;;;19.70;99.90;;;;;;4987801;28;20470;-70
2022/09/07 09:58:02;;;;;;;18.90;9.23;;;19.70;99.90;;;;;;5004467;28;20064;-69
2022/09/07 10:00:31;;;;;;;14.50;8.10;;;19.90;99.90;;;;;;4987911;28;20092;-69
2022/09/07 10:03:27;;;;;;;13.00;8.68;;;20.00;99.90;;;;;;4988025;28;20057;-70
2022/09/07 10:05:53;;;;;;;8.75;7.88;;;20.20;99.90;;;;;;4960939;28;20073;-69
2022/09/07 10:08:30;;;;;;;13.27;8.13;;;20.20;99.90;;;;;;4982476;28;20635;-70
2022/09/07 10:11:02;;;;;;;14.25;8.75;;;20.30;99.90;;;;;;4987801;28;20080;-70
2022/09/07 10:13:35;;;;;;;13.27;8.93;;;20.40;99.90;;;;;;4987702;28;20061;-69
2022/09/07 10:16:04;;;;;;;11.00;8.88;;;20.60;99.90;;;;;;5007166;28;20136;-69
2022/09/07 10:18:37;;;;;;;12.50;9.15;;;20.60;99.90;;;;;;5007804;28;20085;-69
2022/09/07 10:21:16;;;;;;;12.05;9.00;;;20.60;99.90;;;;;;4991111;28;20042;-69
2022/09/07 10:23:52;;;;;;;11.85;8.80;;;20.70;99.90;;;;;;5009091;28;20100;-69
2022/09/07 10:26:34;;;;;;;10.82;8.75;;;20.60;99.90;;;;;;4978389;28;20113;-69
2022/09/07 10:29:26;;;;;;;14.13;9.27;;;20.60;99.90;;;;;;5009141;28;20180;-70
2022/09/07 10:32:27;;;;;;;12.43;9.57;;;20.60;99.90;;;;;;4974500;28;20536;-69
2022/09/07 10:35:16;;;;;;;10.55;9.40;;;20.60;99.90;;;;;;4893739;29;20056;-69
2022/09/07 10:37:45;;;;;;;;;;;20.60;99.90;;;;;;4987301;28;20560;-69
2022/09/07 10:40:27;;;;;;;10.40;9.38;;;20.50;99.90;;;;;;4990467;28;19967;-69
2022/09/07 10:43:11;;;;;;;14.77;9.85;;;20.40;99.90;;;;;;4991314;28;20108;-70
2022/09/07 10:45:51;;;;;;;11.77;9.65;;;20.40;99.90;;;;;;4983274;28;20050;-70
2022/09/07 10:48:46;;;;;;;11.60;10.23;;;20.40;99.90;;;;;;4985489;28;20566;-70
2022/09/07 10:51:40;;;;;;;10.95;9.70;;;20.50;99.90;;;;;;4918556;28;20535;-70
2022/09/07 10:54:28;;;;;;;14.90;10.15;;;20.60;99.90;;;;;;5003735;28;20041;-69
2022/09/07 10:57:16;;;;;;;15.43;9.30;;;20.70;99.90;;;;;;4978454;28;20064;-69
2022/09/07 10:59:54;;;;;;;10.90;9.68;;;20.70;99.90;;;;;;4988440;28;20077;-69
2022/09/07 11:02:26;;;;;;;12.43;9.85;;;20.70;99.90;;;;;;4983177;28;20045;-69
2022/09/07 11:05:10;;;;;;;16.60;10.48;;;20.70;99.90;;;;;;4976730;28;20056;-69
2022/09/07 11:07:48;;;;;;;10.55;9.20;;;20.80;99.90;;;;;;5004304;28;20045;-69
2022/09/07 11:10:20;;;;;;;11.55;8.93;;;20.90;99.90;;;;;;4970052;28;20052;-69
2022/09/07 11:12:49;;;;;;;11.60;9.13;;;20.90;99.90;;;;;;4978443;28;20533;-69
2022/09/07 11:15:18;;;;;;;14.40;9.35;;;20.90;99.90;;;;;;4977318;28;20047;-69
2022/09/07 11:18:04;;;;;;;10.25;9.13;;;20.90;99.90;;;;;;4965570;28;20046;-69
2022/09/07 11:20:40;;;;;;;10.52;9.40;;;20.90;99.90;;;;;;4999803;28;20112;-69
2022/09/07 11:23:17;;;;;;;15.07;9.68;;;21.00;99.90;;;;;;4989677;28;20052;-69
2022/09/07 11:26:06;;;;;;;12.70;9.82;;;21.00;99.90;;;;;;4974201;28;20049;-70
2022/09/07 11:28:53;;;;;;;14.20;9.73;;;21.10;99.90;;;;;;4988899;28;20045;-69
2022/09/07 11:31:22;;;;;;;12.63;9.63;;;21.30;99.90;;;;;;4988196;28;20049;-69
2022/09/07 11:34:00;;;;;;;14.70;9.10;;;21.40;99.90;;;;;;4989514;28;20073;-69
2022/09/07 11:36:33;;;;;;;8.50;6.88;;;21.70;99.90;;;;;;5005752;28;20053;-69
2022/09/07 11:39:22;;;;;;;7.70;6.25;;;21.90;99.90;;;;;;4987026;28;20054;-69
2022/09/07 11:41:59;;;;;;;8.10;7.38;;;21.90;99.90;;;;;;4972234;28;20400;-69
2022/09/07 11:44:33;;;;;;;9.27;7.85;;;22.10;99.90;;;;;;4987293;28;20149;-69
2022/09/07 11:47:10;;;;;;;12.52;8.32;;;22.20;99.90;;;;;;4986319;28;20034;-69
2022/09/07 11:49:36;;;;;;;9.40;8.20;;;22.40;99.90;;;;;;4976992;28;20061;-69
2022/09/07 11:52:18;;;;;;;9.15;8.25;;;22.50;99.90;;;;;;5006704;28;20046;-69
2022/09/07 11:54:49;;;;;;;9.98;8.45;;;22.40;99.90;;;;;;5000081;28;20050;-69
2022/09/07 11:57:14;;;;;;;15.30;8.82;;;22.40;99.90;;;;;;4989246;28;20121;-70
2022/09/07 12:00:02;;;;;;;13.50;8.73;;;22.40;99.90;;;;;;4987387;28;20154;-70
2022/09/07 12:03:05;;;;;;;10.65;8.85;;;22.30;99.90;;;;;;4997669;28;20476;-70
2022/09/07 12:06:08;;;;;;;10.63;8.15;;;22.20;99.90;;;;;;4988245;28;20133;-69
2022/09/07 12:08:55;;;;;;;9.30;8.30;;;22.20;99.90;;;;;;5006809;28;20088;-69
2022/09/07 12:11:58;;;;;;;11.88;8.35;;;22.20;99.90;;;;;;4954236;28;20478;-70
2022/09/07 12:14:40;;;;;;;10.18;7.97;;;22.30;99.90;;;;;;4986681;28;20053;-70
2022/09/07 12:17:23;;;;;;;7.53;6.82;;;22.30;99.90;;;;;;5007092;28;20125;-70
2022/09/07 12:20:16;;;;;;;7.80;7.03;;;22.40;99.90;;;;;;4991373;28;20057;-69
2022/09/07 12:23:03;;;;;;;14.57;8.70;;;22.60;99.90;;;;;;4999693;28;20128;-69
2022/09/07 12:25:33;;;;;;;11.88;6.53;;;22.60;99.90;;;;;;4989033;28;20104;-69
2022/09/07 12:27:59;;;;;;;8.40;7.32;;;22.60;99.90;;;;;;4984763;28;20451;-70
2022/09/07 12:30:25;;;;;;;7.30;6.55;;;22.60;99.90;;;;;;4981816;28;20039;-70
2022/09/07 12:32:52;;;;;;;7.35;6.32;;;22.60;99.90;;;;;;5002933;28;20354;-69
2022/09/07 12:35:28;;;;;;;6.75;5.40;;;22.80;99.90;;;;;;4998258;28;20117;-70
2022/09/07 12:37:59;;;;;;;10.07;6.45;;;23.00;99.90;;;;;;4987694;28;20082;-69
2022/09/07 12:40:28;;;;;;;6.10;5.50;;;23.20;99.30;;;;;;4987567;28;20575;-69
2022/09/07 12:43:15;;;;;;;4.85;4.03;;;23.40;98.90;;;;;;4988451;28;20053;-70
2022/09/07 12:45:41;;;;;;;6.40;4.40;;;23.40;93.60;;;;;;4987487;28;20060;-70
2022/09/07 12:48:15;;;;;;;9.88;4.18;;;23.30;90.70;;;;;;4988905;28;20042;-70
2022/09/07 12:51:09;;;;;;;8.00;4.07;;;23.20;86.00;;;;;;4988897;28;20054;-70
2022/09/07 12:53:54;;;;;;;4.78;4.13;;;23.00;90.40;;;;;;4987022;28;20049;-70
2022/09/07 12:56:40;;;;;;;5.85;4.20;;;22.90;94.10;;;;;;4987884;28;20565;-71
2022/09/07 12:59:50;;;;;;;3.42;3.13;;;23.00;98.60;;;;;;4987098;28;20057;-70
2022/09/07 13:02:22;;;;;;;3.75;3.40;;;23.10;91.00;;;;;;4986787;28;20551;-69
2022/09/07 13:04:59;;;;;;;4.32;3.70;;;23.00;92.60;;;;;;4987846;28;20050;-70
2022/09/07 13:07:52;;;;;;;6.15;3.92;;;22.90;90.20;;;;;;4984324;28;20077;-70
2022/09/07 13:10:32;;;;;;;3.75;3.10;;;22.80;90.60;;;;;;4986891;28;20049;-70